createdAt,value
2023-03-02T00:00:22.004Z,0
2023-03-02T00:01:22.006Z,0
2023-03-02T00:02:22.059Z,0
2023-03-02T00:03:22.027Z,0
2023-03-02T00:04:22.031Z,0
2023-03-02T00:05:22.009Z,0
2023-03-02T00:06:22.007Z,0
2023-03-02T00:07:22.009Z,0
2023-03-02T00:08:22.007Z,0
2023-03-02T00:09:22.024Z,0
2023-03-02T00:10:22.011Z,0
2023-03-02T00:11:22.017Z,0
2023-03-02T00:12:22.019Z,0
2023-03-02T00:13:22.043Z,0
2023-03-02T00:14:22.015Z,0
2023-03-02T00:15:22.017Z,0
2023-03-02T00:16:22.072Z,0
2023-03-02T00:17:22.019Z,0
2023-03-02T00:18:22.035Z,0
2023-03-02T00:19:22.021Z,0
2023-03-02T00:20:22.019Z,0
2023-03-02T00:21:22.018Z,0
2023-03-02T00:22:22.016Z,0
2023-03-02T00:23:22.051Z,0
2023-03-02T00:24:22.028Z,0
2023-03-02T00:25:22.020Z,0
2023-03-02T00:26:22.018Z,0
2023-03-02T00:27:22.021Z,0
2023-03-02T00:28:22.026Z,0
2023-03-02T00:29:22.044Z,0
2023-03-02T00:30:22.035Z,0
2023-03-02T00:31:22.100Z,0
2023-03-02T00:32:22.036Z,0
2023-03-02T00:33:22.035Z,0
2023-03-02T00:34:22.018Z,0
2023-03-02T00:35:22.086Z,0
2023-03-02T00:36:22.018Z,0
2023-03-02T00:37:22.022Z,0
2023-03-02T00:38:22.022Z,0
2023-03-02T00:39:22.021Z,0
2023-03-02T00:40:22.021Z,0
2023-03-02T00:41:22.027Z,0
2023-03-02T00:42:22.022Z,0
2023-03-02T00:43:22.022Z,0
2023-03-02T00:44:22.027Z,0
2023-03-02T00:45:22.057Z,0
2023-03-02T00:46:22.060Z,0
2023-03-02T00:47:22.028Z,0
2023-03-02T00:48:22.027Z,0
2023-03-02T00:49:22.034Z,0
2023-03-02T00:50:22.028Z,0
2023-03-02T00:51:22.027Z,0
2023-03-02T00:52:22.024Z,0
2023-03-02T00:53:22.028Z,0
2023-03-02T00:54:22.027Z,0
2023-03-02T00:55:22.023Z,0
2023-03-02T00:56:22.025Z,0
2023-03-02T00:57:22.027Z,0
2023-03-02T00:58:22.028Z,0
2023-03-02T00:59:22.028Z,0
2023-03-02T01:00:22.023Z,0
2023-03-02T01:01:22.050Z,0
2023-03-02T01:02:22.080Z,0
2023-03-02T01:03:22.093Z,0
2023-03-02T01:04:22.032Z,0
2023-03-02T01:05:22.032Z,0
2023-03-02T01:06:22.032Z,0
2023-03-02T01:07:22.033Z,0
2023-03-02T01:08:22.035Z,0
2023-03-02T01:09:22.033Z,0
2023-03-02T01:10:22.041Z,0
2023-03-02T01:11:22.035Z,0
2023-03-02T01:12:22.046Z,0
2023-03-02T01:13:22.036Z,0
2023-03-02T01:14:22.075Z,0
2023-03-02T01:15:22.043Z,0
2023-03-02T01:16:22.074Z,0
2023-03-02T01:17:22.134Z,0
2023-03-02T01:18:22.049Z,0
2023-03-02T01:19:22.049Z,0
2023-03-02T01:20:22.088Z,0
2023-03-02T01:21:22.062Z,0
2023-03-02T01:22:22.047Z,0
2023-03-02T01:23:22.052Z,0
2023-03-02T01:24:22.064Z,0
2023-03-02T01:25:22.053Z,0
2023-03-02T01:26:22.066Z,0
2023-03-02T01:27:22.055Z,0
2023-03-02T01:28:22.058Z,0
2023-03-02T01:29:22.061Z,0
2023-03-02T01:30:22.055Z,0
2023-03-02T01:31:22.120Z,0
2023-03-02T01:32:22.147Z,0
2023-03-02T01:33:22.095Z,0
2023-03-02T01:34:22.063Z,0
2023-03-02T01:35:22.078Z,0
2023-03-02T01:36:22.061Z,0
2023-03-02T01:37:22.063Z,0
2023-03-02T01:38:22.169Z,0
2023-03-02T01:39:22.068Z,0
2023-03-02T01:40:22.065Z,0
2023-03-02T01:41:22.065Z,0
2023-03-02T01:42:22.065Z,0
2023-03-02T01:43:22.069Z,0
2023-03-02T01:44:22.069Z,0
2023-03-02T01:45:22.089Z,0
2023-03-02T01:46:22.075Z,0
2023-03-02T01:47:22.078Z,0
2023-03-02T01:48:22.073Z,0
2023-03-02T01:49:22.094Z,0
2023-03-02T01:50:22.079Z,0
2023-03-02T01:51:22.076Z,0
2023-03-02T01:52:22.079Z,0
2023-03-02T01:53:22.079Z,0
2023-03-02T01:54:22.077Z,0
2023-03-02T01:55:22.081Z,0
2023-03-02T01:56:22.081Z,0
2023-03-02T01:57:22.082Z,0
2023-03-02T01:58:22.089Z,0
2023-03-02T01:59:22.096Z,0
2023-03-02T02:00:22.083Z,0
2023-03-02T02:01:22.218Z,0
2023-03-02T02:02:22.086Z,0
2023-03-02T02:03:22.090Z,0
2023-03-02T02:04:22.143Z,0
2023-03-02T02:05:22.109Z,0
2023-03-02T02:06:22.086Z,0
2023-03-02T02:07:22.102Z,0
2023-03-02T02:08:22.088Z,0
2023-03-02T02:09:22.092Z,0
2023-03-02T02:10:22.093Z,0
2023-03-02T02:11:22.095Z,0
2023-03-02T02:12:22.093Z,0
2023-03-02T02:13:22.090Z,0
2023-03-02T02:14:22.143Z,0
2023-03-02T02:15:22.094Z,0
2023-03-02T02:16:22.128Z,0
2023-03-02T02:17:22.091Z,0
2023-03-02T02:18:22.104Z,0
2023-03-02T02:19:22.096Z,0
2023-03-02T02:20:22.101Z,0
2023-03-02T02:21:22.120Z,0
2023-03-02T02:22:22.097Z,0
2023-03-02T02:23:22.093Z,0
2023-03-02T02:24:22.118Z,0
2023-03-02T02:25:22.101Z,0
2023-03-02T02:26:22.103Z,0
2023-03-02T02:27:22.105Z,0
2023-03-02T02:28:22.102Z,0
2023-03-02T02:29:22.105Z,0
2023-03-02T02:30:22.106Z,0
2023-03-02T02:31:22.119Z,0
2023-03-02T02:32:22.246Z,0
2023-03-02T02:33:22.106Z,0
2023-03-02T02:34:22.107Z,0
2023-03-02T02:35:22.110Z,0
2023-03-02T02:36:22.106Z,0
2023-03-02T02:37:22.136Z,0
2023-03-02T02:38:22.111Z,0
2023-03-02T02:39:22.119Z,0
2023-03-02T02:40:22.115Z,0
2023-03-02T02:41:22.112Z,0
2023-03-02T02:42:22.129Z,0
2023-03-02T02:43:22.113Z,0
2023-03-02T02:44:22.113Z,0
2023-03-02T02:45:22.115Z,0
2023-03-02T02:46:22.161Z,0
2023-03-02T02:47:22.120Z,0
2023-03-02T02:48:22.120Z,0
2023-03-02T02:49:22.116Z,0
2023-03-02T02:50:22.126Z,0
2023-03-02T02:51:22.121Z,0
2023-03-02T02:52:22.124Z,0
2023-03-02T02:53:22.154Z,0
2023-03-02T02:54:22.125Z,0
2023-03-02T02:55:22.139Z,0
2023-03-02T02:56:22.134Z,0
2023-03-02T02:57:22.128Z,0
2023-03-02T02:58:22.136Z,0
2023-03-02T02:59:22.141Z,0
2023-03-02T03:00:22.139Z,0
2023-03-02T03:01:22.216Z,0
2023-03-02T03:02:22.132Z,0
2023-03-02T03:03:22.135Z,0
2023-03-02T03:04:22.194Z,0
2023-03-02T03:05:22.132Z,0
2023-03-02T03:06:22.133Z,0
2023-03-02T03:07:22.138Z,0
2023-03-02T03:08:22.140Z,0
2023-03-02T03:09:22.258Z,0
2023-03-02T03:10:22.140Z,0
2023-03-02T03:11:22.159Z,0
2023-03-02T03:12:22.141Z,0
2023-03-02T03:13:22.152Z,0
2023-03-02T03:14:22.151Z,0
2023-03-02T03:15:22.155Z,0
2023-03-02T03:16:22.225Z,0
2023-03-02T03:17:22.147Z,0
2023-03-02T03:18:22.155Z,0
2023-03-02T03:19:22.152Z,0
2023-03-02T03:20:22.158Z,0
2023-03-02T03:21:22.158Z,0
2023-03-02T03:22:22.154Z,0
2023-03-02T03:23:22.152Z,0
2023-03-02T03:24:22.161Z,0
2023-03-02T03:25:22.186Z,0
2023-03-02T03:26:22.170Z,0
2023-03-02T03:27:22.157Z,0
2023-03-02T03:28:22.157Z,0
2023-03-02T03:29:22.155Z,0
2023-03-02T03:30:22.167Z,0
2023-03-02T03:31:22.202Z,0
2023-03-02T03:32:22.213Z,0
2023-03-02T03:33:22.173Z,0
2023-03-02T03:34:22.172Z,0
2023-03-02T03:35:22.171Z,0
2023-03-02T03:36:22.180Z,0
2023-03-02T03:37:22.165Z,0
2023-03-02T03:38:22.168Z,0
2023-03-02T03:39:22.163Z,0
2023-03-02T03:40:22.165Z,0
2023-03-02T03:41:22.321Z,0
2023-03-02T03:42:22.168Z,0
2023-03-02T03:43:22.167Z,0
2023-03-02T03:44:22.169Z,0
2023-03-02T03:45:22.175Z,0
2023-03-02T03:46:22.236Z,0
2023-03-02T03:47:22.172Z,0
2023-03-02T03:48:22.171Z,0
2023-03-02T03:49:22.178Z,0
2023-03-02T03:50:22.175Z,0
2023-03-02T03:51:22.176Z,0
2023-03-02T03:52:22.172Z,0
2023-03-02T03:53:22.174Z,0
2023-03-02T03:54:22.175Z,0
2023-03-02T03:55:22.183Z,0
2023-03-02T03:56:22.175Z,0
2023-03-02T03:57:22.200Z,0
2023-03-02T03:58:22.203Z,0
2023-03-02T03:59:22.190Z,0
2023-03-02T04:00:22.182Z,0
2023-03-02T04:01:22.290Z,0
2023-03-02T04:02:22.277Z,0
2023-03-02T04:03:22.180Z,0
2023-03-02T04:04:22.179Z,0
2023-03-02T04:05:22.180Z,0
2023-03-02T04:06:22.179Z,0
2023-03-02T04:07:22.183Z,0
2023-03-02T04:08:22.180Z,0
2023-03-02T04:09:22.199Z,0
2023-03-02T04:10:22.178Z,50
2023-03-02T04:11:22.188Z,0
2023-03-02T04:12:22.183Z,0
2023-03-02T04:13:22.206Z,0
2023-03-02T04:14:22.183Z,0
2023-03-02T04:15:22.184Z,0
2023-03-02T04:16:22.180Z,0
2023-03-02T04:17:22.181Z,0
2023-03-02T04:18:22.182Z,0
2023-03-02T04:19:22.189Z,0
2023-03-02T04:20:22.182Z,0
2023-03-02T04:21:22.196Z,0
2023-03-02T04:22:22.185Z,0
2023-03-02T04:23:22.184Z,0
2023-03-02T04:24:22.186Z,0
2023-03-02T04:25:22.186Z,0
2023-03-02T04:26:22.195Z,0
2023-03-02T04:27:22.193Z,0
2023-03-02T04:28:22.192Z,0
2023-03-02T04:29:22.220Z,0
2023-03-02T04:30:22.194Z,0
2023-03-02T04:31:22.245Z,0
2023-03-02T04:32:22.259Z,0
2023-03-02T04:33:22.205Z,0
2023-03-02T04:34:22.201Z,0
2023-03-02T04:35:22.242Z,0
2023-03-02T04:36:22.210Z,0
2023-03-02T04:37:22.206Z,0
2023-03-02T04:38:22.227Z,0
2023-03-02T04:39:22.225Z,0
2023-03-02T04:40:22.211Z,0
2023-03-02T04:41:22.208Z,0
2023-03-02T04:42:22.211Z,0
2023-03-02T04:43:22.219Z,0
2023-03-02T04:44:22.217Z,0
2023-03-02T04:45:22.284Z,0
2023-03-02T04:46:22.228Z,0
2023-03-02T04:47:22.219Z,0
2023-03-02T04:48:22.220Z,0
2023-03-02T04:49:22.219Z,0
2023-03-02T04:50:22.221Z,0
2023-03-02T04:51:22.221Z,0
2023-03-02T04:52:22.218Z,0
2023-03-02T04:53:22.231Z,0
2023-03-02T04:54:22.228Z,0
2023-03-02T04:55:22.220Z,0
2023-03-02T04:56:22.228Z,0
2023-03-02T04:57:22.226Z,0
2023-03-02T04:58:22.225Z,0
2023-03-02T04:59:22.228Z,0
2023-03-02T05:00:22.240Z,0
2023-03-02T05:01:22.255Z,0
2023-03-02T05:02:22.248Z,0
2023-03-02T05:03:22.226Z,0
2023-03-02T05:04:22.251Z,0
2023-03-02T05:05:22.229Z,0
2023-03-02T05:06:22.225Z,0
2023-03-02T05:07:22.231Z,0
2023-03-02T05:08:22.228Z,0
2023-03-02T05:09:22.226Z,0
2023-03-02T05:10:22.232Z,0
2023-03-02T05:11:22.585Z,0
2023-03-02T05:12:22.230Z,0
2023-03-02T05:13:22.230Z,0
2023-03-02T05:14:22.231Z,0
2023-03-02T05:15:22.230Z,0
2023-03-02T05:16:22.294Z,0
2023-03-02T05:17:22.258Z,0
2023-03-02T05:18:22.231Z,0
2023-03-02T05:19:22.232Z,0
2023-03-02T05:20:22.234Z,0
2023-03-02T05:21:22.234Z,0
2023-03-02T05:22:22.234Z,0
2023-03-02T05:23:24.129Z,0
2023-03-02T05:24:22.232Z,0
2023-03-02T05:25:22.236Z,0
2023-03-02T05:26:22.243Z,1
2023-03-02T05:27:22.233Z,1
2023-03-02T05:28:22.245Z,1
2023-03-02T05:29:22.257Z,1
2023-03-02T05:30:22.238Z,1
2023-03-02T05:31:22.241Z,3
2023-03-02T05:32:22.326Z,3
2023-03-02T05:33:22.264Z,3
2023-03-02T05:34:22.235Z,3
2023-03-02T05:35:22.250Z,3
2023-03-02T05:36:23.285Z,8
2023-03-02T05:37:22.237Z,8
2023-03-02T05:38:22.248Z,8
2023-03-02T05:39:22.242Z,8
2023-03-02T05:40:22.240Z,8
2023-03-02T05:41:22.239Z,18
2023-03-02T05:42:22.243Z,18
2023-03-02T05:43:22.234Z,18
2023-03-02T05:44:22.241Z,18
2023-03-02T05:45:22.238Z,18
2023-03-02T05:46:22.358Z,36
2023-03-02T05:47:22.238Z,36
2023-03-02T05:48:22.243Z,36
2023-03-02T05:49:22.269Z,36
2023-03-02T05:50:22.247Z,36
2023-03-02T05:51:22.252Z,59
2023-03-02T05:52:22.250Z,59
2023-03-02T05:53:22.251Z,59
2023-03-02T05:54:22.249Z,59
2023-03-02T05:55:22.278Z,59
2023-03-02T05:56:22.249Z,81
2023-03-02T05:57:22.252Z,81
2023-03-02T05:58:22.254Z,81
2023-03-02T05:59:22.252Z,81
2023-03-02T06:00:22.259Z,81
2023-03-02T06:01:22.255Z,111
2023-03-02T06:02:22.337Z,111
2023-03-02T06:03:22.317Z,111
2023-03-02T06:04:22.259Z,111
2023-03-02T06:05:22.283Z,111
2023-03-02T06:06:22.259Z,148
2023-03-02T06:07:22.272Z,148
2023-03-02T06:08:22.258Z,148
2023-03-02T06:09:22.260Z,148
2023-03-02T06:10:22.262Z,148
2023-03-02T06:11:22.258Z,199
2023-03-02T06:12:22.256Z,199
2023-03-02T06:13:22.260Z,199
2023-03-02T06:14:22.263Z,199
2023-03-02T06:15:22.269Z,199
2023-03-02T06:16:22.300Z,259
2023-03-02T06:17:22.263Z,259
2023-03-02T06:18:22.270Z,259
2023-03-02T06:19:22.270Z,259
2023-03-02T06:20:22.269Z,259
2023-03-02T06:21:22.291Z,311
2023-03-02T06:22:22.276Z,311
2023-03-02T06:23:22.267Z,311
2023-03-02T06:24:22.276Z,311
2023-03-02T06:25:22.274Z,311
2023-03-02T06:26:22.272Z,373
2023-03-02T06:27:22.274Z,438
2023-03-02T06:28:22.274Z,391
2023-03-02T06:29:22.281Z,391
2023-03-02T06:30:22.286Z,391
2023-03-02T06:31:22.405Z,391
2023-03-02T06:32:22.344Z,391
2023-03-02T06:33:22.280Z,463
2023-03-02T06:34:22.287Z,463
2023-03-02T06:35:22.363Z,463
2023-03-02T06:36:22.307Z,463
2023-03-02T06:37:22.399Z,463
2023-03-02T06:38:22.290Z,557
2023-03-02T06:39:22.287Z,557
2023-03-02T06:40:22.318Z,557
2023-03-02T06:41:22.287Z,557
2023-03-02T06:42:22.294Z,557
2023-03-02T06:43:22.290Z,685
2023-03-02T06:44:22.291Z,685
2023-03-02T06:45:22.296Z,685
2023-03-02T06:46:22.338Z,685
2023-03-02T06:47:22.298Z,685
2023-03-02T06:48:22.299Z,1937
2023-03-02T06:49:22.294Z,1937
2023-03-02T06:50:22.301Z,1937
2023-03-02T06:51:22.300Z,1937
2023-03-02T06:52:22.301Z,1937
2023-03-02T06:53:22.333Z,1851
2023-03-02T06:54:24.029Z,1851
2023-03-02T06:55:22.304Z,1851
2023-03-02T06:56:22.307Z,1851
2023-03-02T06:57:22.309Z,1851
2023-03-02T06:58:22.317Z,2043
2023-03-02T06:59:22.310Z,2043
2023-03-02T07:00:23.633Z,2043
2023-03-02T07:01:22.351Z,2043
2023-03-02T07:02:22.316Z,2788
2023-03-02T07:03:22.420Z,2788
2023-03-02T07:04:22.314Z,3090
2023-03-02T07:05:22.314Z,3090
2023-03-02T07:06:22.315Z,3090
2023-03-02T07:07:22.313Z,3090
2023-03-02T07:08:22.319Z,3090
2023-03-02T07:09:22.356Z,5008
2023-03-02T07:10:22.319Z,5008
2023-03-02T07:11:22.323Z,5008
2023-03-02T07:12:22.320Z,5008
2023-03-02T07:13:22.322Z,5008
2023-03-02T07:14:22.321Z,7109
2023-03-02T07:15:22.317Z,7109
2023-03-02T07:16:22.431Z,7109
2023-03-02T07:17:22.323Z,7109
2023-03-02T07:18:22.325Z,7109
2023-03-02T07:19:22.331Z,7241
2023-03-02T07:20:22.329Z,7086
2023-03-02T07:21:22.326Z,7078
2023-03-02T07:22:22.328Z,7078
2023-03-02T07:23:22.327Z,7078
2023-03-02T07:24:22.330Z,7078
2023-03-02T07:25:22.361Z,7078
2023-03-02T07:26:22.332Z,8123
2023-03-02T07:27:22.337Z,8123
2023-03-02T07:28:22.337Z,8123
2023-03-02T07:29:22.348Z,8123
2023-03-02T07:30:22.342Z,8123
2023-03-02T07:31:22.334Z,8339
2023-03-02T07:32:22.420Z,8339
2023-03-02T07:33:22.357Z,8339
2023-03-02T07:34:22.336Z,8339
2023-03-02T07:35:22.371Z,8339
2023-03-02T07:36:22.348Z,8466
2023-03-02T07:37:22.348Z,8466
2023-03-02T07:38:22.349Z,8466
2023-03-02T07:39:22.357Z,8466
2023-03-02T07:40:22.344Z,8466
2023-03-02T07:41:22.369Z,8484
2023-03-02T07:42:22.347Z,8484
2023-03-02T07:43:22.351Z,8484
2023-03-02T07:44:22.352Z,8484
2023-03-02T07:45:22.352Z,8537
2023-03-02T07:46:22.387Z,8523
2023-03-02T07:47:22.351Z,8523
2023-03-02T07:48:22.353Z,8523
2023-03-02T07:49:22.353Z,8523
2023-03-02T07:50:22.357Z,8490
2023-03-02T07:51:22.361Z,8490
2023-03-02T07:52:22.360Z,8490
2023-03-02T07:53:22.359Z,8490
2023-03-02T07:54:22.362Z,8490
2023-03-02T07:55:22.359Z,8521
2023-03-02T07:56:22.363Z,8521
2023-03-02T07:57:22.384Z,8521
2023-03-02T07:58:22.364Z,8521
2023-03-02T07:59:22.363Z,8521
2023-03-02T08:00:22.365Z,8762
2023-03-02T08:01:22.416Z,8762
2023-03-02T08:02:22.440Z,8762
2023-03-02T08:03:22.369Z,8762
2023-03-02T08:04:22.368Z,8762
2023-03-02T08:05:22.375Z,8987
2023-03-02T08:06:22.369Z,8987
2023-03-02T08:07:22.367Z,8987
2023-03-02T08:08:22.405Z,8987
2023-03-02T08:09:22.368Z,8987
2023-03-02T08:10:22.368Z,9055
2023-03-02T08:11:22.396Z,9055
2023-03-02T08:12:22.380Z,9055
2023-03-02T08:13:22.529Z,9055
2023-03-02T08:14:22.378Z,9112
2023-03-02T08:15:22.373Z,9112
2023-03-02T08:16:22.421Z,9112
2023-03-02T08:17:22.374Z,9124
2023-03-02T08:18:22.370Z,9124
2023-03-02T08:19:22.385Z,9124
2023-03-02T08:20:22.376Z,9124
2023-03-02T08:21:22.377Z,9124
2023-03-02T08:22:22.379Z,9118
2023-03-02T08:23:22.418Z,9118
2023-03-02T08:24:22.380Z,9118
2023-03-02T08:25:22.387Z,9118
2023-03-02T08:26:22.383Z,9118
2023-03-02T08:27:22.382Z,9131
2023-03-02T08:28:22.390Z,9131
2023-03-02T08:29:22.409Z,9131
2023-03-02T08:30:22.383Z,9131
2023-03-02T08:31:22.442Z,9131
2023-03-02T08:32:22.407Z,9226
2023-03-02T08:33:22.383Z,9226
2023-03-02T08:34:22.389Z,9309
2023-03-02T08:35:22.473Z,9309
2023-03-02T08:36:22.389Z,9145
2023-03-02T08:37:22.392Z,9145
2023-03-02T08:38:22.391Z,9145
2023-03-02T08:39:22.404Z,9145
2023-03-02T08:40:22.395Z,9145
2023-03-02T08:41:22.395Z,9074
2023-03-02T08:42:22.397Z,9074
2023-03-02T08:43:22.390Z,9074
2023-03-02T08:44:22.434Z,9074
2023-03-02T08:45:22.420Z,9074
2023-03-02T08:46:22.402Z,9221
2023-03-02T08:47:22.395Z,9192
2023-03-02T08:48:22.443Z,9192
2023-03-02T08:49:22.393Z,9192
2023-03-02T08:50:22.398Z,9192
2023-03-02T08:51:22.413Z,9192
2023-03-02T08:52:22.422Z,9164
2023-03-02T08:53:22.395Z,9226
2023-03-02T08:54:22.400Z,9133
2023-03-02T08:55:22.441Z,9133
2023-03-02T08:56:22.409Z,9154
2023-03-02T08:57:22.403Z,9179
2023-03-02T08:58:22.400Z,9194
2023-03-02T08:59:22.397Z,9217
2023-03-02T09:00:22.401Z,9217
2023-03-02T09:01:22.586Z,9253
2023-03-02T09:02:22.405Z,9253
2023-03-02T09:03:22.407Z,9348
2023-03-02T09:04:22.505Z,9318
2023-03-02T09:05:22.403Z,9318
2023-03-02T09:06:22.404Z,9363
2023-03-02T09:07:22.406Z,9363
2023-03-02T09:08:22.407Z,9363
2023-03-02T09:09:22.406Z,9363
2023-03-02T09:10:22.412Z,9363
2023-03-02T09:11:22.403Z,9363
2023-03-02T09:12:22.408Z,9343
2023-03-02T09:13:22.407Z,9465
2023-03-02T09:14:22.407Z,9491
2023-03-02T09:15:22.405Z,9489
2023-03-02T09:16:22.503Z,9478
2023-03-02T09:17:22.442Z,9478
2023-03-02T09:18:22.403Z,9478
2023-03-02T09:19:22.411Z,9478
2023-03-02T09:20:22.435Z,9335
2023-03-02T09:21:22.414Z,9258
2023-03-02T09:22:22.408Z,9251
2023-03-02T09:23:22.416Z,9251
2023-03-02T09:24:22.462Z,9251
2023-03-02T09:25:22.422Z,9251
2023-03-02T09:26:22.417Z,9251
2023-03-02T09:27:22.457Z,9324
2023-03-02T09:28:22.433Z,9324
2023-03-02T09:29:22.423Z,9324
2023-03-02T09:30:22.423Z,9324
2023-03-02T09:31:22.423Z,9324
2023-03-02T09:32:22.559Z,9177
2023-03-02T09:33:22.467Z,9175
2023-03-02T09:34:22.416Z,8954
2023-03-02T09:35:22.415Z,8815
2023-03-02T09:36:22.416Z,8545
2023-03-02T09:37:22.415Z,8612
2023-03-02T09:38:22.418Z,8915
2023-03-02T09:39:22.415Z,8543
2023-03-02T09:40:22.418Z,8543
2023-03-02T09:41:22.425Z,8608
2023-03-02T09:42:24.051Z,8606
2023-03-02T09:43:22.423Z,8606
2023-03-02T09:44:22.422Z,8606
2023-03-02T09:45:22.418Z,8606
2023-03-02T09:46:22.478Z,8606
2023-03-02T09:47:34.752Z,8774
2023-03-02T09:48:22.422Z,8774
2023-03-02T09:49:22.463Z,8774
2023-03-02T09:50:22.424Z,8774
2023-03-02T09:51:22.425Z,8774
2023-03-02T09:52:22.423Z,9326
2023-03-02T09:53:22.421Z,9309
2023-03-02T09:54:22.485Z,9309
2023-03-02T09:55:22.443Z,9309
2023-03-02T09:56:22.434Z,9309
2023-03-02T09:57:22.439Z,8849
2023-03-02T09:58:22.424Z,8849
2023-03-02T09:59:22.429Z,8358
2023-03-02T10:00:22.418Z,8196
2023-03-02T10:01:22.421Z,8196
2023-03-02T10:02:22.422Z,8598
2023-03-02T10:03:22.459Z,9034
2023-03-02T10:04:22.554Z,8744
2023-03-02T10:05:22.455Z,8744
2023-03-02T10:06:22.437Z,8547
2023-03-02T10:07:22.422Z,8547
2023-03-02T10:08:22.421Z,8547
2023-03-02T10:09:22.425Z,8547
2023-03-02T10:10:22.431Z,8547
2023-03-02T10:11:22.421Z,6400
2023-03-02T10:12:22.428Z,6400
2023-03-02T10:13:22.434Z,7367
2023-03-02T10:14:22.438Z,7367
2023-03-02T10:15:22.422Z,7367
2023-03-02T10:16:22.482Z,7367
2023-03-02T10:17:22.434Z,7367
2023-03-02T10:18:22.478Z,8553
2023-03-02T10:19:22.424Z,8553
2023-03-02T10:20:22.429Z,8553
2023-03-02T10:21:22.523Z,9036
2023-03-02T10:22:22.431Z,9605
2023-03-02T10:23:22.428Z,7417
2023-03-02T10:24:22.433Z,7784
2023-03-02T10:25:22.444Z,8555
2023-03-02T10:26:22.428Z,9445
2023-03-02T10:27:22.434Z,9438
2023-03-02T10:28:22.430Z,9438
2023-03-02T10:29:22.433Z,9438
2023-03-02T10:30:22.432Z,9438
2023-03-02T10:31:22.528Z,7572
2023-03-02T10:32:22.583Z,7572
2023-03-02T10:33:22.452Z,7572
2023-03-02T10:34:22.436Z,7572
2023-03-02T10:35:22.456Z,7572
2023-03-02T10:36:22.441Z,2913
2023-03-02T10:37:22.477Z,2943
2023-03-02T10:38:22.437Z,4626
2023-03-02T10:39:22.454Z,5503
2023-03-02T10:40:22.443Z,4878
2023-03-02T10:41:22.440Z,3082
2023-03-02T10:42:22.470Z,3082
2023-03-02T10:43:22.453Z,2950
2023-03-02T10:44:22.448Z,2950
2023-03-02T10:45:22.448Z,2950
2023-03-02T10:46:22.536Z,2950
2023-03-02T10:47:22.452Z,2950
2023-03-02T10:48:22.449Z,3436
2023-03-02T10:49:22.454Z,3436
2023-03-02T10:50:22.467Z,3436
2023-03-02T10:51:22.453Z,3147
2023-03-02T10:52:22.456Z,3105
2023-03-02T10:53:22.488Z,3065
2023-03-02T10:54:22.452Z,3087
2023-03-02T10:55:22.455Z,3402
2023-03-02T10:56:22.463Z,3350
2023-03-02T10:57:22.458Z,3350
2023-03-02T10:58:22.459Z,3350
2023-03-02T10:59:22.461Z,3350
2023-03-02T11:00:22.462Z,3350
2023-03-02T11:01:22.479Z,3593
2023-03-02T11:02:22.469Z,3790
2023-03-02T11:03:22.468Z,3768
2023-03-02T11:04:22.493Z,3739
2023-03-02T11:05:22.462Z,3902
2023-03-02T11:06:22.481Z,3902
2023-03-02T11:07:22.466Z,4627
2023-03-02T11:08:22.471Z,4712
2023-03-02T11:09:22.495Z,4607
2023-03-02T11:10:22.507Z,4737
2023-03-02T11:11:22.551Z,4380
2023-03-02T11:12:22.474Z,4815
2023-03-02T11:13:22.473Z,5330
2023-03-02T11:14:22.468Z,5139
2023-03-02T11:15:22.470Z,4772
2023-03-02T11:16:22.549Z,4694
2023-03-02T11:17:22.480Z,4933
2023-03-02T11:18:22.475Z,4613
2023-03-02T11:19:22.480Z,4800
2023-03-02T11:20:22.584Z,4800
2023-03-02T11:21:22.479Z,4800
2023-03-02T11:22:22.484Z,4800
2023-03-02T11:23:22.492Z,4800
2023-03-02T11:24:22.487Z,4969
2023-03-02T11:25:22.602Z,4969
2023-03-02T11:26:22.484Z,6467
2023-03-02T11:27:22.488Z,7110
2023-03-02T11:28:22.507Z,7447
2023-03-02T11:29:22.846Z,7388
2023-03-02T11:30:22.633Z,7777
2023-03-02T11:31:22.543Z,7822
2023-03-02T11:32:22.578Z,7607
2023-03-02T11:33:22.511Z,7495
2023-03-02T11:34:22.597Z,7495
2023-03-02T11:35:22.902Z,7638
2023-03-02T11:36:22.493Z,7881
2023-03-02T11:37:22.491Z,8539
2023-03-02T11:38:22.495Z,8429
2023-03-02T11:39:22.495Z,8716
2023-03-02T11:40:22.494Z,8539
2023-03-02T11:41:22.537Z,8566
2023-03-02T11:42:22.542Z,8541
2023-03-02T11:43:22.499Z,8136
2023-03-02T11:44:22.497Z,8217
2023-03-02T11:45:22.496Z,8198
2023-03-02T11:46:23.780Z,8276
2023-03-02T11:47:22.594Z,8276
2023-03-02T11:48:22.544Z,8276
2023-03-02T11:49:22.500Z,7984
2023-03-02T11:50:22.502Z,7930
2023-03-02T11:51:22.504Z,8035
2023-03-02T11:52:22.504Z,8052
2023-03-02T11:53:22.542Z,8198
2023-03-02T11:54:22.503Z,7997
2023-03-02T11:55:22.507Z,7967
2023-03-02T11:56:22.508Z,6778
2023-03-02T11:57:22.550Z,6910
2023-03-02T11:58:22.524Z,6910
2023-03-02T11:59:22.513Z,7914
2023-03-02T12:00:22.642Z,7099
2023-03-02T12:01:22.519Z,6587
2023-03-02T12:02:22.524Z,6990
2023-03-02T12:03:22.520Z,7471
2023-03-02T12:04:22.522Z,7271
2023-03-02T12:05:22.548Z,7399
2023-03-02T12:06:22.520Z,7203
2023-03-02T12:07:22.525Z,6336
2023-03-02T12:08:22.527Z,7822
2023-03-02T12:09:22.568Z,7452
2023-03-02T12:10:22.526Z,6822
2023-03-02T12:11:22.530Z,7129
2023-03-02T12:12:22.533Z,6998
2023-03-02T12:13:22.556Z,4621
2023-03-02T12:14:22.533Z,4697
2023-03-02T12:15:22.528Z,5204
2023-03-02T12:16:22.540Z,6275
2023-03-02T12:17:22.599Z,6786
2023-03-02T12:18:22.538Z,7820
2023-03-02T12:19:22.538Z,6926
2023-03-02T12:20:22.536Z,7427
2023-03-02T12:21:22.545Z,7238
2023-03-02T12:22:22.536Z,7667
2023-03-02T12:23:22.539Z,7170
2023-03-02T12:24:22.544Z,7170
2023-03-02T12:25:22.541Z,7170
2023-03-02T12:26:22.536Z,7688
2023-03-02T12:27:22.569Z,7487
2023-03-02T12:28:22.544Z,7514
2023-03-02T12:29:22.647Z,7171
2023-03-02T12:30:22.551Z,7547
2023-03-02T12:31:22.562Z,6213
2023-03-02T12:32:22.586Z,5228
2023-03-02T12:33:22.565Z,4941
2023-03-02T12:34:22.573Z,6378
2023-03-02T12:35:22.589Z,7745
2023-03-02T12:36:22.547Z,7440
2023-03-02T12:37:22.553Z,7120
2023-03-02T12:38:22.567Z,7883
2023-03-02T12:39:22.555Z,7008
2023-03-02T12:40:22.552Z,7034
2023-03-02T12:41:22.571Z,7651
2023-03-02T12:42:22.553Z,6615
2023-03-02T12:43:22.557Z,8170
2023-03-02T12:44:22.555Z,7746
2023-03-02T12:45:22.578Z,7224
2023-03-02T12:46:22.559Z,5711
2023-03-02T12:47:22.983Z,5380
2023-03-02T12:48:22.676Z,5358
2023-03-02T12:49:22.562Z,5910
2023-03-02T12:50:22.557Z,6801
2023-03-02T12:51:22.651Z,6359
2023-03-02T12:52:23.982Z,7132
2023-03-02T12:53:22.564Z,8153
2023-03-02T12:54:22.559Z,6992
2023-03-02T12:55:22.557Z,6728
2023-03-02T12:56:22.555Z,7651
2023-03-02T12:57:22.571Z,7750
2023-03-02T12:58:22.559Z,7619
2023-03-02T12:59:22.607Z,6295
2023-03-02T13:00:22.566Z,6387
2023-03-02T13:01:22.646Z,8391
2023-03-02T13:02:22.578Z,7746
2023-03-02T13:03:22.564Z,7811
2023-03-02T13:04:22.601Z,7501
2023-03-02T13:05:22.561Z,7872
2023-03-02T13:06:22.562Z,7949
2023-03-02T13:07:22.575Z,8043
2023-03-02T13:08:22.626Z,8141
2023-03-02T13:09:22.557Z,8119
2023-03-02T13:10:22.604Z,7705
2023-03-02T13:11:22.569Z,7750
2023-03-02T13:12:22.561Z,7114
2023-03-02T13:13:22.701Z,7369
2023-03-02T13:14:22.605Z,7642
2023-03-02T13:15:22.564Z,7513
2023-03-02T13:16:22.624Z,7102
2023-03-02T13:17:22.606Z,7094
2023-03-02T13:18:22.565Z,7537
2023-03-02T13:19:22.565Z,7920
2023-03-02T13:20:22.576Z,7969
2023-03-02T13:21:22.565Z,7982
2023-03-02T13:22:22.626Z,7584
2023-03-02T13:23:22.563Z,7263
2023-03-02T13:24:22.565Z,7878
2023-03-02T13:25:22.581Z,7665
2023-03-02T13:26:22.568Z,7661
2023-03-02T13:27:22.617Z,7520
2023-03-02T13:28:22.586Z,7109
2023-03-02T13:29:22.569Z,7109
2023-03-02T13:30:22.614Z,6679
2023-03-02T13:31:22.741Z,6679
2023-03-02T13:32:22.601Z,6819
2023-03-02T13:33:22.594Z,6888
2023-03-02T13:34:22.576Z,6229
2023-03-02T13:35:23.633Z,6291
2023-03-02T13:36:22.584Z,6076
2023-03-02T13:37:22.574Z,6024
2023-03-02T13:38:22.570Z,6286
2023-03-02T13:39:22.577Z,5707
2023-03-02T13:40:22.607Z,6772
2023-03-02T13:41:22.575Z,6397
2023-03-02T13:42:22.586Z,6644
2023-03-02T13:43:22.575Z,6555
2023-03-02T13:44:22.576Z,6545
2023-03-02T13:45:22.582Z,7158
2023-03-02T13:46:22.634Z,7102
2023-03-02T13:47:22.600Z,6952
2023-03-02T13:48:22.617Z,7102
2023-03-02T13:49:22.603Z,6738
2023-03-02T13:50:22.627Z,6887
2023-03-02T13:51:22.575Z,7109
2023-03-02T13:52:22.589Z,7221
2023-03-02T13:53:22.582Z,7122
2023-03-02T13:54:22.582Z,6761
2023-03-02T13:55:22.581Z,7084